createdAt,value
2018-07-09T00:03:49.716Z,85.69
2018-07-09T00:06:18.842Z,84.72
2018-07-09T00:08:49.833Z,81.86
2018-07-09T00:11:18.905Z,84.70
2018-07-09T00:16:28.674Z,86.24
2018-07-09T00:21:33.463Z,82.40
2018-07-09T00:24:02.514Z,84.00
2018-07-09T00:26:31.568Z,85.87
2018-07-09T00:31:36.417Z,86.89
2018-07-09T00:36:43.286Z,83.50
2018-07-09T00:39:12.337Z,86.94
2018-07-09T00:41:41.391Z,87.26
2018-07-09T00:44:10.492Z,87.29
2018-07-09T00:46:39.533Z,85.65
2018-07-09T00:49:08.685Z,87.93
2018-07-09T00:51:38.690Z,86.25
2018-07-09T00:54:07.735Z,89.90
2018-07-09T00:59:12.639Z,86.34
2018-07-09T01:01:45.726Z,88.04
2018-07-09T01:04:14.781Z,89.07
2018-07-09T01:06:44.854Z,88.67
2018-07-09T01:09:13.910Z,87.97
2018-07-09T01:11:42.957Z,91.25
2018-07-09T01:16:48.723Z,90.65
2018-07-09T01:19:18.838Z,90.29
2018-07-09T01:21:51.955Z,90.83
2018-07-09T01:24:21.001Z,89.68
2018-07-09T01:26:50.057Z,87.57
2018-07-09T01:29:20.058Z,87.74
2018-07-09T01:34:24.991Z,90.74
2018-07-09T01:36:54.030Z,89.12
2018-07-09T01:39:23.097Z,90.69
2018-07-09T01:41:53.128Z,91.99
2018-07-09T01:46:58.894Z,92.08
2018-07-09T01:49:28.921Z,90.64
2018-07-09T01:52:01.205Z,92.76
2018-07-09T01:57:06.009Z,93.55
2018-07-09T02:02:10.818Z,92.45
2018-07-09T02:04:40.766Z,93.57
2018-07-09T02:07:09.819Z,94.42
2018-07-09T02:14:08.883Z,92.47
2018-07-09T02:16:39.829Z,91.78
2018-07-09T02:19:08.902Z,91.92
2018-07-09T02:21:39.951Z,92.44
2018-07-09T02:24:09.001Z,91.13
2018-07-09T02:26:39.961Z,91.82
2018-07-09T02:29:10.007Z,90.06
2018-07-09T02:31:40.037Z,90.20
2018-07-09T02:34:09.101Z,89.73
2018-07-09T02:36:40.076Z,91.39
2018-07-09T02:39:10.273Z,91.23
2018-07-09T02:41:39.326Z,91.10
2018-07-09T02:44:08.438Z,91.89
2018-07-09T02:46:38.405Z,92.28
2018-07-09T02:49:07.483Z,91.85
2018-07-09T02:51:39.891Z,96.56
2018-07-09T02:54:10.934Z,96.30
2018-07-09T02:56:40.903Z,97.00
2018-07-09T02:59:10.014Z,95.97
2018-07-09T03:01:39.224Z,97.14
2018-07-09T03:04:08.270Z,98.87
2018-07-09T03:09:15.053Z,95.83
2018-07-09T03:11:44.129Z,95.43
2018-07-09T03:14:13.202Z,94.80
2018-07-09T03:16:42.418Z,93.54
2018-07-09T03:19:13.520Z,96.06
2018-07-09T03:21:44.452Z,93.94
2018-07-09T03:24:13.832Z,93.34
2018-07-09T03:26:42.867Z,94.60
2018-07-09T03:29:12.025Z,95.22
2018-07-09T03:31:43.142Z,95.37
2018-07-09T03:36:48.985Z,94.02
2018-07-09T03:39:18.112Z,94.59
2018-07-09T03:41:47.254Z,96.35
2018-07-09T03:44:16.285Z,95.59
2018-07-09T03:46:45.340Z,95.41
2018-07-09T03:49:15.402Z,96.93
2018-07-09T03:54:20.194Z,93.79
2018-07-09T03:59:25.032Z,93.40
2018-07-09T04:01:54.095Z,95.08
2018-07-09T04:04:23.283Z,97.20
2018-07-09T04:06:52.369Z,96.96
2018-07-09T04:09:21.410Z,99.34
2018-07-09T04:11:52.427Z,94.88
2018-07-09T04:14:21.701Z,95.48
2018-07-09T04:16:52.861Z,96.95
2018-07-09T04:19:21.898Z,97.09
2018-07-09T04:21:50.965Z,94.88
2018-07-09T04:24:20.385Z,95.21
2018-07-09T04:26:49.690Z,95.38
2018-07-09T04:29:18.730Z,94.61
2018-07-09T04:34:26.895Z,92.40
2018-07-09T04:36:57.007Z,92.41
2018-07-09T04:44:39.410Z,89.51
2018-07-09T04:47:09.401Z,90.79
2018-07-09T04:52:16.110Z,89.52
2018-07-09T04:54:45.463Z,89.09
2018-07-09T04:57:16.013Z,88.58
2018-07-09T04:59:45.084Z,88.42
2018-07-09T05:04:54.090Z,87.22
2018-07-09T05:07:23.156Z,88.20
2018-07-09T05:09:52.214Z,88.58
2018-07-09T05:20:08.075Z,85.41
2018-07-09T05:22:37.140Z,85.58
2018-07-09T05:25:06.177Z,85.71
2018-07-09T05:27:35.500Z,85.94
2018-07-09T05:30:04.561Z,86.63
2018-07-09T05:35:09.499Z,85.80
2018-07-09T05:37:38.598Z,85.63
2018-07-09T05:40:07.752Z,85.19
2018-07-09T05:42:36.912Z,82.92
2018-07-09T05:45:05.954Z,81.03
2018-07-09T05:47:35.000Z,80.30
2018-07-09T05:50:05.515Z,77.98
2018-07-09T05:52:34.583Z,77.25
2018-07-09T05:55:04.706Z,74.10
2018-07-09T05:57:33.834Z,71.23
2018-07-09T06:02:47.694Z,67.78
2018-07-09T06:05:17.910Z,68.93
2018-07-09T06:07:46.985Z,70.50
2018-07-09T06:10:17.048Z,66.43
2018-07-09T06:12:47.059Z,69.12
2018-07-09T06:15:16.535Z,64.60
2018-07-09T06:17:45.579Z,62.65
2018-07-09T06:20:14.637Z,65.76
2018-07-09T06:22:46.550Z,63.43
2018-07-09T06:27:51.939Z,65.65
2018-07-09T06:30:20.997Z,67.97
2018-07-09T06:32:50.063Z,68.65
2018-07-09T06:35:19.253Z,66.86
2018-07-09T06:37:52.998Z,67.23
2018-07-09T06:40:24.036Z,63.96
2018-07-09T06:42:54.073Z,63.31
2018-07-09T06:45:23.161Z,64.29
2018-07-09T06:50:27.940Z,61.14
2018-07-09T06:52:57.002Z,64.78
2018-07-09T06:55:27.965Z,65.21
2018-07-09T07:00:33.150Z,64.61
2018-07-09T07:03:03.588Z,63.96
2018-07-09T07:05:34.581Z,63.25
2018-07-09T07:08:03.641Z,63.01
2018-07-09T07:10:33.019Z,62.19
2018-07-09T07:15:37.863Z,63.84
2018-07-09T07:18:08.118Z,61.52
2018-07-09T07:20:37.173Z,62.44
2018-07-09T07:25:42.031Z,58.21
2018-07-09T07:30:46.890Z,61.55
2018-07-09T07:33:16.944Z,60.95
2018-07-09T07:35:55.077Z,58.52
2018-07-09T07:43:37.777Z,58.82
2018-07-09T07:46:07.762Z,55.85
2018-07-09T07:48:37.025Z,59.21
2018-07-09T07:51:06.238Z,59.48
2018-07-09T07:53:35.264Z,59.54
2018-07-09T07:56:04.314Z,59.68
2018-07-09T07:58:33.717Z,58.07
2018-07-09T08:01:02.809Z,52.91
2018-07-09T08:03:33.808Z,55.41
2018-07-09T08:06:08.225Z,57.16
2018-07-09T08:08:38.252Z,58.29
2018-07-09T08:11:11.672Z,57.22
2018-07-09T08:13:38.833Z,54.39
2018-07-09T08:16:10.306Z,53.79
2018-07-09T08:18:43.242Z,52.35
2018-07-09T08:21:20.747Z,52.47
2018-07-09T08:23:54.749Z,53.83
2018-07-09T08:26:23.810Z,53.48
2018-07-09T08:28:56.629Z,54.02
2018-07-09T08:31:25.711Z,52.51
2018-07-09T08:33:54.721Z,51.89
2018-07-09T08:36:27.322Z,49.79
2018-07-09T08:38:56.423Z,49.53
2018-07-09T08:41:27.463Z,49.55
2018-07-09T08:43:57.908Z,51.30
2018-07-09T08:46:34.958Z,50.51
2018-07-09T08:49:04.013Z,52.28
2018-07-09T08:51:33.120Z,50.77
2018-07-09T08:54:02.206Z,45.90
2018-07-09T08:56:33.212Z,50.32
2018-07-09T08:59:05.803Z,45.30
2018-07-09T09:01:35.812Z,45.14
2018-07-09T09:04:05.818Z,47.94
2018-07-09T09:06:36.147Z,49.75
2018-07-09T09:09:05.190Z,50.27
2018-07-09T09:11:36.211Z,49.07
2018-07-09T09:16:41.076Z,46.86
2018-07-09T09:19:11.101Z,47.28
2018-07-09T09:26:53.002Z,43.91
2018-07-09T09:29:25.534Z,42.37
2018-07-09T09:32:02.168Z,40.58
2018-07-09T09:34:40.052Z,39.17
2018-07-09T09:37:09.090Z,37.69
2018-07-09T09:39:38.160Z,33.71
2018-07-09T09:42:08.175Z,35.15
2018-07-09T09:44:39.582Z,35.88
2018-07-09T09:47:10.573Z,31.23
2018-07-09T09:49:40.595Z,33.91
2018-07-09T09:52:16.955Z,29.98
2018-07-09T09:54:46.002Z,32.97
2018-07-09T09:57:15.054Z,31.10
2018-07-09T09:59:45.305Z,26.88
2018-07-09T10:04:50.331Z,28.13
2018-07-09T10:07:19.385Z,27.23
2018-07-09T10:09:48.438Z,27.85
2018-07-09T10:12:17.493Z,27.10
2018-07-09T10:14:46.645Z,33.53
2018-07-09T10:17:15.700Z,36.23
2018-07-09T10:19:44.752Z,35.96
2018-07-09T10:22:14.169Z,32.82
2018-07-09T10:24:43.235Z,34.25
2018-07-09T10:27:12.292Z,31.22
2018-07-09T10:29:41.416Z,29.33
2018-07-09T10:32:10.458Z,26.55
2018-07-09T10:37:15.300Z,26.09
2018-07-09T10:39:48.171Z,26.17
2018-07-09T10:42:25.052Z,24.73
2018-07-09T10:44:55.226Z,23.69
2018-07-09T10:47:24.287Z,24.11
2018-07-09T10:49:53.339Z,23.57
2018-07-09T10:52:22.379Z,27.19
2018-07-09T10:54:52.769Z,25.74
2018-07-09T10:57:21.821Z,22.95
2018-07-09T10:59:51.810Z,21.68
2018-07-09T11:02:21.867Z,24.96
2018-07-09T11:04:54.426Z,23.28
2018-07-09T11:07:27.306Z,22.50
2018-07-09T11:10:06.434Z,22.69
2018-07-09T11:12:35.463Z,22.42
2018-07-09T11:15:04.512Z,20.96
2018-07-09T11:17:33.737Z,22.04
2018-07-09T11:20:06.226Z,21.25
2018-07-09T11:22:36.217Z,19.27
2018-07-09T11:25:05.266Z,21.27
2018-07-09T11:27:35.237Z,22.07
2018-07-09T11:30:06.294Z,21.77
2018-07-09T11:32:36.554Z,20.98
2018-07-09T11:35:05.615Z,20.26
2018-07-09T11:37:38.089Z,20.02
2018-07-09T11:40:12.331Z,20.50
2018-07-09T11:42:41.396Z,21.00
2018-07-09T11:45:10.677Z,21.08
2018-07-09T11:47:39.821Z,21.12
2018-07-09T11:50:10.853Z,23.52
2018-07-09T11:52:39.914Z,23.00
2018-07-09T11:55:10.898Z,22.92
2018-07-09T11:57:41.170Z,22.86
2018-07-09T12:02:46.093Z,22.25
2018-07-09T12:05:15.245Z,20.43
2018-07-09T12:07:44.281Z,23.32
2018-07-09T12:10:14.491Z,21.39
2018-07-09T12:12:43.865Z,20.70
2018-07-09T12:15:12.925Z,19.68
2018-07-09T12:17:41.953Z,20.52
2018-07-09T12:20:12.397Z,22.71
2018-07-09T12:22:41.735Z,23.98
2018-07-09T12:25:10.779Z,22.23
2018-07-09T12:27:41.774Z,22.14
2018-07-09T12:30:10.816Z,22.52
2018-07-09T12:32:40.015Z,22.40
2018-07-09T12:35:09.992Z,20.84
2018-07-09T12:37:39.033Z,19.40
2018-07-09T12:40:08.101Z,20.17
2018-07-09T12:42:37.151Z,20.02
2018-07-09T12:45:06.190Z,18.02
2018-07-09T12:47:36.534Z,18.53
2018-07-09T12:52:41.398Z,18.76
2018-07-09T12:55:10.545Z,18.34
2018-07-09T12:57:39.955Z,20.12
2018-07-09T13:02:44.889Z,18.73
2018-07-09T13:05:22.073Z,16.83
2018-07-09T13:07:57.659Z,21.00
2018-07-09T13:10:31.386Z,19.55
2018-07-09T13:13:15.872Z,19.32
2018-07-09T13:15:52.943Z,19.06
2018-07-09T13:21:06.273Z,17.93
2018-07-09T13:23:37.305Z,19.35
2018-07-09T13:26:07.109Z,18.45
2018-07-09T13:28:36.212Z,18.03
2018-07-09T13:31:05.356Z,20.50
2018-07-09T13:36:10.181Z,20.39
2018-07-09T13:38:41.316Z,19.98
2018-07-09T13:41:11.506Z,21.28
2018-07-09T13:43:40.553Z,21.89
2018-07-09T13:48:45.400Z,21.23
2018-07-09T13:51:14.465Z,20.99
2018-07-09T13:53:48.352Z,19.35
2018-07-09T13:56:17.388Z,19.77
2018-07-09T13:58:47.560Z,20.07
2018-07-09T14:01:16.608Z,19.88
2018-07-09T14:03:51.220Z,18.86
2018-07-09T14:06:20.278Z,19.50
2018-07-09T14:08:49.350Z,19.47
2018-07-09T14:13:54.217Z,19.54
2018-07-09T14:16:23.686Z,17.49
2018-07-09T14:18:52.827Z,19.96
2018-07-09T14:21:21.789Z,18.96
2018-07-09T14:23:54.379Z,19.01
2018-07-09T14:26:23.965Z,19.10
2018-07-09T14:28:53.011Z,17.98
2018-07-09T14:31:22.073Z,18.02
2018-07-09T14:33:52.086Z,17.90
2018-07-09T14:36:21.322Z,18.06
2018-07-09T14:41:26.902Z,19.04
2018-07-09T14:43:55.968Z,17.80
2018-07-09T14:46:30.182Z,18.66
2018-07-09T14:48:59.228Z,18.13
2018-07-09T14:51:28.286Z,17.87
2018-07-09T14:54:01.693Z,20.02
2018-07-09T14:56:31.708Z,20.58
2018-07-09T14:59:08.369Z,19.93
2018-07-09T15:01:43.303Z,17.83
2018-07-09T15:04:17.842Z,18.63
2018-07-09T15:06:46.981Z,17.31
2018-07-09T15:09:16.034Z,16.34
2018-07-09T15:11:48.592Z,17.06
2018-07-09T15:14:18.624Z,17.27
2018-07-09T15:16:49.675Z,16.98
2018-07-09T15:19:20.709Z,16.19
2018-07-09T15:21:49.953Z,15.99
2018-07-09T15:24:19.047Z,17.10
2018-07-09T15:26:49.997Z,16.13
2018-07-09T15:29:19.053Z,17.79
2018-07-09T15:31:50.102Z,17.10
2018-07-09T15:34:20.472Z,15.94
2018-07-09T15:36:51.412Z,16.57
2018-07-09T15:39:20.477Z,16.07
2018-07-09T15:41:49.525Z,15.74
2018-07-09T15:44:18.845Z,17.33
2018-07-09T15:46:47.885Z,16.86
2018-07-09T15:49:16.995Z,15.13
2018-07-09T15:51:45.990Z,16.62
2018-07-09T15:56:50.853Z,17.33
2018-07-09T15:59:21.870Z,18.41
2018-07-09T16:01:54.412Z,19.10
2018-07-09T16:04:23.694Z,19.54
2018-07-09T16:06:53.656Z,18.89
2018-07-09T16:09:22.712Z,18.14
2018-07-09T16:11:52.814Z,18.61
2018-07-09T16:19:33.444Z,20.77
2018-07-09T16:22:02.549Z,19.93
2018-07-09T16:24:32.515Z,19.66
2018-07-09T16:27:02.978Z,19.06
2018-07-09T16:29:33.988Z,18.70
2018-07-09T16:32:03.046Z,20.93
2018-07-09T16:34:35.146Z,22.22
2018-07-09T16:37:08.556Z,23.36
2018-07-09T16:39:47.742Z,24.34
2018-07-09T16:42:21.611Z,24.92
2018-07-09T16:47:33.421Z,27.92
2018-07-09T16:50:08.968Z,30.21
2018-07-09T16:52:46.436Z,30.28
2018-07-09T16:57:56.729Z,31.37
2018-07-09T17:00:33.340Z,30.28
2018-07-09T17:03:07.021Z,30.57
2018-07-09T17:05:42.476Z,33.34
2018-07-09T17:08:16.809Z,31.37
2018-07-09T17:10:50.588Z,33.19
2018-07-09T17:13:23.769Z,31.83
2018-07-09T17:16:05.869Z,33.86
2018-07-09T17:18:39.794Z,31.81
2018-07-09T17:21:09.783Z,33.46
2018-07-09T17:23:52.644Z,33.32
2018-07-09T17:26:28.163Z,35.29
2018-07-09T17:29:01.083Z,37.71
2018-07-09T17:31:36.243Z,37.38
2018-07-09T17:34:08.251Z,37.56
2018-07-09T17:39:18.501Z,37.75
2018-07-09T17:41:51.626Z,41.39
2018-07-09T17:44:25.548Z,42.36
2018-07-09T17:47:01.197Z,40.23
2018-07-09T17:49:36.285Z,38.92
2018-07-09T17:52:10.221Z,43.81
2018-07-09T17:57:15.099Z,46.22
2018-07-09T17:59:47.637Z,46.27
2018-07-09T18:04:52.526Z,46.56
2018-07-09T18:07:22.497Z,46.70
2018-07-09T18:12:28.387Z,48.89
2018-07-09T18:14:57.445Z,47.25
2018-07-09T18:17:26.767Z,50.74
2018-07-09T18:19:55.809Z,50.79
2018-07-09T18:22:24.862Z,48.36
2018-07-09T18:24:54.129Z,50.40
2018-07-09T18:27:23.318Z,51.46
2018-07-09T18:29:52.374Z,48.27
2018-07-09T18:32:21.426Z,49.77
2018-07-09T18:34:50.933Z,55.57
2018-07-09T18:37:20.005Z,55.68
2018-07-09T18:39:49.073Z,59.55
2018-07-09T18:42:18.364Z,59.04
2018-07-09T18:44:47.417Z,57.09
2018-07-09T18:47:16.552Z,54.89
2018-07-09T18:49:45.602Z,54.74
2018-07-09T18:54:50.470Z,56.32
2018-07-09T18:57:19.533Z,60.34
2018-07-09T18:59:49.748Z,57.82
2018-07-09T19:02:18.780Z,57.77
2018-07-09T19:04:49.803Z,61.83
2018-07-09T19:07:19.834Z,62.91
2018-07-09T19:09:48.973Z,64.57
2018-07-09T19:12:18.018Z,65.20
2018-07-09T19:14:48.058Z,63.08
2018-07-09T19:17:17.107Z,62.39
2018-07-09T19:19:49.017Z,67.67
2018-07-09T19:22:18.077Z,66.11
2018-07-09T19:24:46.333Z,67.93
2018-07-09T19:27:14.590Z,68.56
2018-07-09T19:32:18.648Z,62.79
2018-07-09T19:34:46.970Z,62.23
2018-07-09T19:37:16.260Z,62.94
2018-07-09T19:39:44.365Z,61.72
2018-07-09T19:42:12.634Z,62.40
2018-07-09T19:47:16.649Z,64.70
2018-07-09T19:49:44.913Z,64.61
2018-07-09T19:52:13.201Z,64.56
2018-07-09T19:54:41.464Z,65.32
2018-07-09T19:57:10.655Z,64.63
2018-07-09T20:02:14.962Z,64.12
2018-07-09T20:04:44.227Z,66.28
2018-07-09T20:07:12.498Z,65.14
2018-07-09T20:09:41.673Z,64.49
2018-07-09T20:17:21.631Z,68.60
2018-07-09T20:19:50.934Z,67.56
2018-07-09T20:22:19.244Z,66.70
2018-07-09T20:27:23.307Z,69.14
2018-07-09T20:29:52.479Z,67.80
2018-07-09T20:34:56.542Z,65.99
2018-07-09T20:37:24.789Z,66.19
2018-07-09T20:39:53.047Z,67.39
2018-07-09T20:44:57.035Z,66.08
2018-07-09T20:47:25.297Z,68.35
2018-07-09T20:49:54.486Z,69.46
2018-07-09T20:54:58.550Z,68.74
2018-07-09T20:57:26.825Z,70.49
2018-07-09T20:59:55.093Z,69.90
2018-07-09T21:04:59.145Z,70.42
2018-07-09T21:07:27.404Z,70.14
2018-07-09T21:12:31.459Z,71.68
2018-07-09T21:14:59.769Z,74.26
2018-07-09T21:17:27.988Z,75.01
2018-07-09T21:19:56.263Z,75.94
2018-07-09T21:22:24.529Z,73.67
2018-07-09T21:24:52.796Z,73.64
2018-07-09T21:27:21.058Z,73.64
2018-07-09T21:29:49.509Z,74.97
2018-07-09T21:32:17.777Z,75.70
2018-07-09T21:34:46.048Z,74.69
2018-07-09T21:37:14.306Z,75.97
2018-07-09T21:39:42.688Z,75.18
2018-07-09T21:42:10.933Z,72.75
2018-07-09T21:44:39.221Z,73.18
2018-07-09T21:47:07.487Z,76.01
2018-07-09T21:49:35.760Z,79.27
2018-07-09T21:52:04.043Z,76.58
2018-07-09T21:54:32.310Z,76.72
2018-07-09T21:57:01.474Z,80.69
2018-07-09T21:59:29.732Z,75.78
2018-07-09T22:01:58.004Z,79.33
2018-07-09T22:04:26.288Z,79.09
2018-07-09T22:06:54.534Z,75.63
2018-07-09T22:09:22.801Z,75.32
2018-07-09T22:11:51.074Z,74.12
2018-07-09T22:16:55.074Z,75.51
2018-07-09T22:19:23.335Z,79.27
2018-07-09T22:21:51.621Z,78.49
2018-07-09T22:24:19.874Z,76.23
2018-07-09T22:26:48.133Z,76.34
2018-07-09T22:29:16.406Z,76.05
2018-07-09T22:36:57.179Z,76.64
2018-07-09T22:39:26.237Z,75.56
2018-07-09T22:41:55.338Z,76.35
2018-07-09T22:44:25.339Z,75.79
2018-07-09T22:49:30.769Z,74.93
2018-07-09T22:51:59.821Z,76.12
2018-07-09T22:54:28.925Z,74.63
2018-07-09T22:57:05.837Z,77.29
2018-07-09T22:59:35.305Z,77.62
2018-07-09T23:02:04.349Z,75.76
2018-07-09T23:04:33.425Z,77.13
2018-07-09T23:07:03.402Z,76.99
2018-07-09T23:12:08.173Z,75.79
2018-07-09T23:14:37.225Z,75.82
2018-07-09T23:17:24.137Z,76.16
2018-07-09T23:19:53.266Z,76.63
2018-07-09T23:22:21.538Z,76.05
2018-07-09T23:27:25.572Z,75.52
2018-07-09T23:32:29.553Z,74.70
2018-07-09T23:34:57.813Z,75.11
2018-07-09T23:37:26.063Z,76.82
2018-07-09T23:42:30.043Z,78.00
2018-07-09T23:44:58.321Z,78.93
2018-07-09T23:47:26.681Z,76.91
2018-07-09T23:49:55.123Z,77.46
2018-07-09T23:52:23.394Z,77.64
2018-07-09T23:54:51.649Z,77.54
2018-07-09T23:57:20.708Z,79.43
